Svyataya Anna — UUCV — position and weather

sailwx.info

Track history (hours):
 
Tides and Currents Weather Stations Pressure Air Temp Water Temp Dewpoint Dewpoint Depression Visibility Wind Speed Wind Dir Waves Ship Positions

Svyataya Anna

Last reported at 2017-May-24 15:07 UTC. Time now 2017-May-27 02:28 UTC.
Position N 45°33' E 036°45'.

Length 93 m; draft 3.2 m.

Type: Cargo ship. MMSI: 272068800.

Date/timePositionNaut miles runAvg speedWind from/ knotsBaromVisibWave heightAir tempDewpointWater temp
2017-May-24 15:07N 45°33' E 036°45'1 5.1
2017-May-24 14:59N 45°32' E 036°44'5 4.9
2017-May-24 14:00N 45°28' E 036°42'3 5.2
2017-May-24 13:30N 45°25' E 036°41'3 5.8
2017-May-24 13:00N 45°22' E 036°40'2 4.9
2017-May-24 12:30N 45°20' E 036°38'2 4.7
2017-May-24 12:00N 45°19' E 036°35'2 4.9
2017-May-24 11:30N 45°19' E 036°32'3 5.1
2017-May-24 11:00N 45°17' E 036°29'2 3.3
2017-May-24 10:30N 45°16' E 036°29'2 3.8
2017-May-24 10:00N 45°14' E 036°30'1 0.5
2017-May-24 08:27N 45°13' E 036°30'2 3.3
2017-May-24 07:58N 45°12' E 036°30'  
2017-May-19 22:57N 46°35' E 031°51'3 6.0
2017-May-19 22:30N 46°34' E 031°55'3 5.4
2017-May-19 22:00N 46°33' E 031°59'3 5.3
2017-May-19 21:24N 46°32' E 032°03'2 5.2
2017-May-19 21:00N 46°32' E 032°06'  
2017-May-16 19:21N 47°31' E 034°48'2 4.9
2017-May-16 18:59N 47°32' E 034°50'7 4.8
2017-May-16 17:26N 47°34' E 035°01'2 4.8
2017-May-16 17:00N 47°36' E 035°03'3 5.1
2017-May-16 16:29N 47°38' E 035°05'3 5.3
2017-May-16 16:00N 47°40' E 035°07'3 5.2
2017-May-16 15:30N 47°42' E 035°08'2 4.8
2017-May-16 15:00N 47°45' E 035°10'3 5.0
2017-May-16 14:30N 47°47' E 035°09'5 4.6
2017-May-16 13:30N 47°51' E 035°05'1 2.5
2017-May-16 13:00N 47°52' E 035°06'0 0.1
2017-May-16 12:30N 47°52' E 035°06'2 4.1
2017-May-16 12:00N 47°54' E 035°06'3 5.4
2017-May-16 11:30N 47°57' E 035°07'3 5.5
2017-May-16 11:00N 47°59' E 035°08'3 5.2
2017-May-16 10:30N 48°02' E 035°08'  
Track history (hours):
 
Tides and Currents Weather Stations Pressure Air Temp Water Temp Dewpoint Dewpoint Depression Visibility Wind Speed Wind Dir Waves Ship Positions

Svyataya Anna

Last reported at 2017-May-24 15:07 UTC. Time now 2017-May-27 02:28 UTC.
Position N 45°33' E 036°45'.

Length 93 m; draft 3.2 m.

Type: Cargo ship. MMSI: 272068800.

Date/timePositionNaut miles runAvg speedWind from/ knotsBaromVisibWave heightAir tempDewpointWater temp
2017-May-24 15:07N 45°33' E 036°45'1 5.1
2017-May-24 14:59N 45°32' E 036°44'5 4.9
2017-May-24 14:00N 45°28' E 036°42'3 5.2
2017-May-24 13:30N 45°25' E 036°41'3 5.8
2017-May-24 13:00N 45°22' E 036°40'2 4.9
2017-May-24 12:30N 45°20' E 036°38'2 4.7
2017-May-24 12:00N 45°19' E 036°35'2 4.9
2017-May-24 11:30N 45°19' E 036°32'3 5.1
2017-May-24 11:00N 45°17' E 036°29'2 3.3
2017-May-24 10:30N 45°16' E 036°29'2 3.8
2017-May-24 10:00N 45°14' E 036°30'1 0.5
2017-May-24 08:27N 45°13' E 036°30'2 3.3
2017-May-24 07:58N 45°12' E 036°30'  
2017-May-19 22:57N 46°35' E 031°51'3 6.0
2017-May-19 22:30N 46°34' E 031°55'3 5.4
2017-May-19 22:00N 46°33' E 031°59'3 5.3
2017-May-19 21:24N 46°32' E 032°03'2 5.2
2017-May-19 21:00N 46°32' E 032°06'  
2017-May-16 19:21N 47°31' E 034°48'2 4.9
2017-May-16 18:59N 47°32' E 034°50'7 4.8
2017-May-16 17:26N 47°34' E 035°01'2 4.8
2017-May-16 17:00N 47°36' E 035°03'3 5.1
2017-May-16 16:29N 47°38' E 035°05'3 5.3
2017-May-16 16:00N 47°40' E 035°07'3 5.2
2017-May-16 15:30N 47°42' E 035°08'2 4.8
2017-May-16 15:00N 47°45' E 035°10'3 5.0
2017-May-16 14:30N 47°47' E 035°09'5 4.6
2017-May-16 13:30N 47°51' E 035°05'1 2.5
2017-May-16 13:00N 47°52' E 035°06'0 0.1
2017-May-16 12:30N 47°52' E 035°06'2 4.1
2017-May-16 12:00N 47°54' E 035°06'3 5.4
2017-May-16 11:30N 47°57' E 035°07'3 5.5
2017-May-16 11:00N 47°59' E 035°08'3 5.2
2017-May-16 10:30N 48°02' E 035°08'  

Dump ship's entire track history